sensor_id;sensor_type;location;lat;lon;timestamp;P1;durP1;ratioP1;P2;durP2;ratioP2
2728;SDS011;1372;47.956;7.830;2023-06-22T00:01:28;5.50;;;4.37;;
2728;SDS011;1372;47.956;7.830;2023-06-22T00:03:57;7.13;;;4.70;;
2728;SDS011;1372;47.956;7.830;2023-06-22T00:06:26;5.63;;;4.47;;
2728;SDS011;1372;47.956;7.830;2023-06-22T00:08:55;7.10;;;4.50;;
2728;SDS011;1372;47.956;7.830;2023-06-22T00:11:27;6.03;;;4.20;;
2728;SDS011;1372;47.956;7.830;2023-06-22T00:13:58;6.53;;;4.30;;
2728;SDS011;1372;47.956;7.830;2023-06-22T00:16:27;4.50;;;4.10;;
2728;SDS011;1372;47.956;7.830;2023-06-22T00:18:55;5.00;;;4.50;;
2728;SDS011;1372;47.956;7.830;2023-06-22T00:21:30;11.50;;;4.90;;
2728;SDS011;1372;47.956;7.830;2023-06-22T00:23:58;5.23;;;4.63;;
2728;SDS011;1372;47.956;7.830;2023-06-22T00:26:31;4.93;;;3.93;;
2728;SDS011;1372;47.956;7.830;2023-06-22T00:29:00;7.33;;;4.73;;
2728;SDS011;1372;47.956;7.830;2023-06-22T00:31:29;5.10;;;4.60;;
2728;SDS011;1372;47.956;7.830;2023-06-22T00:33:57;9.27;;;4.77;;
2728;SDS011;1372;47.956;7.830;2023-06-22T00:36:29;6.13;;;4.67;;
2728;SDS011;1372;47.956;7.830;2023-06-22T00:39:00;6.83;;;4.70;;
2728;SDS011;1372;47.956;7.830;2023-06-22T00:41:31;6.03;;;4.53;;
2728;SDS011;1372;47.956;7.830;2023-06-22T00:44:01;6.93;;;4.47;;
2728;SDS011;1372;47.956;7.830;2023-06-22T00:46:30;6.90;;;4.23;;
2728;SDS011;1372;47.956;7.830;2023-06-22T00:49:01;6.60;;;5.00;;
2728;SDS011;1372;47.956;7.830;2023-06-22T00:51:32;5.00;;;4.30;;
2728;SDS011;1372;47.956;7.830;2023-06-22T00:54:05;5.17;;;4.70;;
2728;SDS011;1372;47.956;7.830;2023-06-22T00:56:35;6.63;;;4.20;;
2728;SDS011;1372;47.956;7.830;2023-06-22T00:59:04;6.77;;;4.70;;
2728;SDS011;1372;47.956;7.830;2023-06-22T01:01:33;6.30;;;4.70;;
2728;SDS011;1372;47.956;7.830;2023-06-22T01:04:06;12.10;;;5.07;;
2728;SDS011;1372;47.956;7.830;2023-06-22T01:06:35;6.10;;;5.50;;
2728;SDS011;1372;47.956;7.830;2023-06-22T01:09:25;6.90;;;4.77;;
2728;SDS011;1372;47.956;7.830;2023-06-22T01:12:02;6.73;;;4.50;;
2728;SDS011;1372;47.956;7.830;2023-06-22T01:14:38;7.80;;;5.13;;
2728;SDS011;1372;47.956;7.830;2023-06-22T01:17:11;8.10;;;4.83;;
2728;SDS011;1372;47.956;7.830;2023-06-22T01:19:43;6.60;;;4.50;;
2728;SDS011;1372;47.956;7.830;2023-06-22T01:22:15;5.30;;;4.70;;
2728;SDS011;1372;47.956;7.830;2023-06-22T01:24:49;7.13;;;5.50;;
2728;SDS011;1372;47.956;7.830;2023-06-22T01:27:39;7.03;;;4.90;;
2728;SDS011;1372;47.956;7.830;2023-06-22T01:30:29;6.20;;;5.47;;
2728;SDS011;1372;47.956;7.830;2023-06-22T01:33:03;5.97;;;4.60;;
2728;SDS011;1372;47.956;7.830;2023-06-22T01:35:33;8.40;;;4.67;;
2728;SDS011;1372;47.956;7.830;2023-06-22T01:38:04;6.10;;;4.57;;
2728;SDS011;1372;47.956;7.830;2023-06-22T01:40:36;6.43;;;5.40;;
2728;SDS011;1372;47.956;7.830;2023-06-22T01:43:05;9.63;;;5.37;;
2728;SDS011;1372;47.956;7.830;2023-06-22T01:45:38;7.17;;;5.60;;
2728;SDS011;1372;47.956;7.830;2023-06-22T01:48:07;6.00;;;5.50;;
2728;SDS011;1372;47.956;7.830;2023-06-22T01:50:39;7.27;;;5.00;;
2728;SDS011;1372;47.956;7.830;2023-06-22T01:53:08;8.27;;;4.80;;
2728;SDS011;1372;47.956;7.830;2023-06-22T01:55:37;5.67;;;5.10;;
2728;SDS011;1372;47.956;7.830;2023-06-22T01:58:08;6.30;;;5.50;;
2728;SDS011;1372;47.956;7.830;2023-06-22T02:00:38;8.40;;;5.00;;
2728;SDS011;1372;47.956;7.830;2023-06-22T02:03:13;8.27;;;6.30;;
2728;SDS011;1372;47.956;7.830;2023-06-22T02:05:48;8.40;;;5.33;;
2728;SDS011;1372;47.956;7.830;2023-06-22T02:08:20;5.90;;;5.00;;
2728;SDS011;1372;47.956;7.830;2023-06-22T02:10:53;5.50;;;4.70;;
2728;SDS011;1372;47.956;7.830;2023-06-22T02:13:25;6.17;;;5.20;;
2728;SDS011;1372;47.956;7.830;2023-06-22T02:15:59;5.50;;;4.83;;
2728;SDS011;1372;47.956;7.830;2023-06-22T02:18:32;4.70;;;4.30;;
2728;SDS011;1372;47.956;7.830;2023-06-22T02:21:02;7.73;;;6.43;;
2728;SDS011;1372;47.956;7.830;2023-06-22T02:23:31;9.13;;;6.13;;
2728;SDS011;1372;47.956;7.830;2023-06-22T02:26:04;8.90;;;5.20;;
2728;SDS011;1372;47.956;7.830;2023-06-22T02:28:33;5.40;;;4.77;;
2728;SDS011;1372;47.956;7.830;2023-06-22T02:31:03;4.93;;;4.43;;
2728;SDS011;1372;47.956;7.830;2023-06-22T02:33:32;5.87;;;5.27;;
2728;SDS011;1372;47.956;7.830;2023-06-22T02:36:01;5.43;;;4.93;;
2728;SDS011;1372;47.956;7.830;2023-06-22T02:38:31;6.57;;;5.40;;
2728;SDS011;1372;47.956;7.830;2023-06-22T02:41:01;8.87;;;6.60;;
2728;SDS011;1372;47.956;7.830;2023-06-22T02:43:30;6.33;;;5.10;;
2728;SDS011;1372;47.956;7.830;2023-06-22T02:45:59;7.23;;;5.40;;
2728;SDS011;1372;47.956;7.830;2023-06-22T02:48:32;6.93;;;5.63;;
2728;SDS011;1372;47.956;7.830;2023-06-22T02:51:00;10.17;;;5.90;;
2728;SDS011;1372;47.956;7.830;2023-06-22T02:53:29;7.63;;;5.67;;
2728;SDS011;1372;47.956;7.830;2023-06-22T02:55:59;6.53;;;5.50;;
2728;SDS011;1372;47.956;7.830;2023-06-22T02:58:30;8.40;;;5.30;;
2728;SDS011;1372;47.956;7.830;2023-06-22T03:01:04;6.60;;;5.80;;
2728;SDS011;1372;47.956;7.830;2023-06-22T03:03:35;5.30;;;4.80;;
2728;SDS011;1372;47.956;7.830;2023-06-22T03:06:04;7.17;;;5.30;;
2728;SDS011;1372;47.956;7.830;2023-06-22T03:08:32;5.60;;;5.20;;
2728;SDS011;1372;47.956;7.830;2023-06-22T03:11:01;6.77;;;5.50;;
2728;SDS011;1372;47.956;7.830;2023-06-22T03:13:30;6.00;;;5.20;;
2728;SDS011;1372;47.956;7.830;2023-06-22T03:15:59;6.60;;;5.60;;
2728;SDS011;1372;47.956;7.830;2023-06-22T03:18:28;7.10;;;5.37;;
2728;SDS011;1372;47.956;7.830;2023-06-22T03:20:58;10.63;;;5.50;;
2728;SDS011;1372;47.956;7.830;2023-06-22T03:23:29;5.80;;;5.20;;
2728;SDS011;1372;47.956;7.830;2023-06-22T03:25:58;6.87;;;5.63;;
2728;SDS011;1372;47.956;7.830;2023-06-22T03:28:26;6.47;;;5.70;;
2728;SDS011;1372;47.956;7.830;2023-06-22T03:30:56;6.27;;;5.37;;
2728;SDS011;1372;47.956;7.830;2023-06-22T03:33:26;7.70;;;5.23;;
2728;SDS011;1372;47.956;7.830;2023-06-22T03:35:54;7.90;;;5.70;;
2728;SDS011;1372;47.956;7.830;2023-06-22T03:38:24;9.13;;;5.77;;
2728;SDS011;1372;47.956;7.830;2023-06-22T03:40:55;7.53;;;5.40;;
2728;SDS011;1372;47.956;7.830;2023-06-22T03:43:24;6.33;;;5.23;;
2728;SDS011;1372;47.956;7.830;2023-06-22T03:45:53;9.00;;;5.83;;
2728;SDS011;1372;47.956;7.830;2023-06-22T03:48:22;10.20;;;5.60;;
2728;SDS011;1372;47.956;7.830;2023-06-22T03:50:51;7.17;;;5.37;;
2728;SDS011;1372;47.956;7.830;2023-06-22T03:53:20;9.73;;;5.40;;
2728;SDS011;1372;47.956;7.830;2023-06-22T03:55:50;7.40;;;6.70;;
2728;SDS011;1372;47.956;7.830;2023-06-22T03:58:22;7.20;;;5.37;;
2728;SDS011;1372;47.956;7.830;2023-06-22T04:00:52;8.60;;;5.47;;
2728;SDS011;1372;47.956;7.830;2023-06-22T04:03:21;6.40;;;5.30;;
2728;SDS011;1372;47.956;7.830;2023-06-22T04:05:50;6.23;;;5.63;;
2728;SDS011;1372;47.956;7.830;2023-06-22T04:08:21;6.10;;;5.50;;
2728;SDS011;1372;47.956;7.830;2023-06-22T04:10:51;7.13;;;5.80;;
2728;SDS011;1372;47.956;7.830;2023-06-22T04:13:20;9.93;;;6.27;;
2728;SDS011;1372;47.956;7.830;2023-06-22T04:15:49;9.10;;;5.90;;
2728;SDS011;1372;47.956;7.830;2023-06-22T04:18:19;7.73;;;6.20;;
2728;SDS011;1372;47.956;7.830;2023-06-22T04:20:47;9.00;;;5.90;;
2728;SDS011;1372;47.956;7.830;2023-06-22T04:23:16;8.50;;;6.67;;
2728;SDS011;1372;47.956;7.830;2023-06-22T04:25:45;8.50;;;6.63;;
2728;SDS011;1372;47.956;7.830;2023-06-22T04:28:16;10.13;;;5.50;;
2728;SDS011;1372;47.956;7.830;2023-06-22T04:30:45;7.47;;;6.73;;
2728;SDS011;1372;47.956;7.830;2023-06-22T04:33:14;7.80;;;7.00;;
2728;SDS011;1372;47.956;7.830;2023-06-22T04:35:44;7.40;;;6.67;;
2728;SDS011;1372;47.956;7.830;2023-06-22T04:38:16;7.20;;;6.50;;
2728;SDS011;1372;47.956;7.830;2023-06-22T04:40:48;6.80;;;5.93;;
2728;SDS011;1372;47.956;7.830;2023-06-22T04:43:18;7.23;;;6.23;;
2728;SDS011;1372;47.956;7.830;2023-06-22T04:45:47;8.53;;;6.30;;
2728;SDS011;1372;47.956;7.830;2023-06-22T04:48:19;8.87;;;6.20;;
2728;SDS011;1372;47.956;7.830;2023-06-22T04:50:48;6.80;;;6.20;;
2728;SDS011;1372;47.956;7.830;2023-06-22T04:53:17;9.70;;;6.67;;
2728;SDS011;1372;47.956;7.830;2023-06-22T04:55:46;8.70;;;6.90;;
2728;SDS011;1372;47.956;7.830;2023-06-22T04:58:15;8.07;;;7.03;;
2728;SDS011;1372;47.956;7.830;2023-06-22T05:00:48;12.73;;;7.30;;
2728;SDS011;1372;47.956;7.830;2023-06-22T05:03:18;11.80;;;7.03;;
2728;SDS011;1372;47.956;7.830;2023-06-22T05:05:47;8.83;;;7.87;;
2728;SDS011;1372;47.956;7.830;2023-06-22T05:08:17;8.57;;;7.20;;
2728;SDS011;1372;47.956;7.830;2023-06-22T05:10:45;9.03;;;7.57;;
2728;SDS011;1372;47.956;7.830;2023-06-22T05:13:32;7.80;;;7.00;;
2728;SDS011;1372;47.956;7.830;2023-06-22T05:16:06;10.37;;;8.37;;
2728;SDS011;1372;47.956;7.830;2023-06-22T05:18:37;7.50;;;6.77;;
2728;SDS011;1372;47.956;7.830;2023-06-22T05:21:06;10.13;;;7.33;;
2728;SDS011;1372;47.956;7.830;2023-06-22T05:23:35;7.83;;;6.70;;
2728;SDS011;1372;47.956;7.830;2023-06-22T05:26:03;9.27;;;7.10;;
2728;SDS011;1372;47.956;7.830;2023-06-22T05:28:33;9.00;;;7.30;;
2728;SDS011;1372;47.956;7.830;2023-06-22T05:31:01;9.63;;;8.70;;
2728;SDS011;1372;47.956;7.830;2023-06-22T05:33:32;7.17;;;6.57;;
2728;SDS011;1372;47.956;7.830;2023-06-22T05:36:01;9.23;;;7.10;;
2728;SDS011;1372;47.956;7.830;2023-06-22T05:38:29;8.23;;;7.40;;
2728;SDS011;1372;47.956;7.830;2023-06-22T05:40:58;9.10;;;7.70;;
2728;SDS011;1372;47.956;7.830;2023-06-22T05:43:27;7.93;;;7.20;;
2728;SDS011;1372;47.956;7.830;2023-06-22T05:45:56;9.33;;;8.17;;
2728;SDS011;1372;47.956;7.830;2023-06-22T05:48:25;8.40;;;7.07;;
2728;SDS011;1372;47.956;7.830;2023-06-22T05:50:56;9.17;;;8.33;;
2728;SDS011;1372;47.956;7.830;2023-06-22T05:53:25;8.90;;;7.93;;
2728;SDS011;1372;47.956;7.830;2023-06-22T05:55:56;14.33;;;8.27;;
2728;SDS011;1372;47.956;7.830;2023-06-22T05:58:27;9.93;;;8.37;;
2728;SDS011;1372;47.956;7.830;2023-06-22T06:00:56;10.13;;;9.13;;
2728;SDS011;1372;47.956;7.830;2023-06-22T06:03:27;10.47;;;8.67;;
2728;SDS011;1372;47.956;7.830;2023-06-22T06:06:00;12.03;;;8.90;;
2728;SDS011;1372;47.956;7.830;2023-06-22T06:08:30;16.13;;;9.83;;
2728;SDS011;1372;47.956;7.830;2023-06-22T06:10:59;11.60;;;8.87;;
2728;SDS011;1372;47.956;7.830;2023-06-22T06:13:27;9.13;;;8.23;;
2728;SDS011;1372;47.956;7.830;2023-06-22T06:15:59;9.67;;;8.70;;
2728;SDS011;1372;47.956;7.830;2023-06-22T06:18:28;14.47;;;9.37;;
2728;SDS011;1372;47.956;7.830;2023-06-22T06:21:00;10.90;;;9.77;;
2728;SDS011;1372;47.956;7.830;2023-06-22T06:23:29;11.10;;;8.93;;
2728;SDS011;1372;47.956;7.830;2023-06-22T06:25:58;12.03;;;9.87;;
2728;SDS011;1372;47.956;7.830;2023-06-22T06:28:28;13.23;;;11.00;;
2728;SDS011;1372;47.956;7.830;2023-06-22T06:30:56;14.03;;;9.83;;
2728;SDS011;1372;47.956;7.830;2023-06-22T06:33:28;10.00;;;8.70;;
2728;SDS011;1372;47.956;7.830;2023-06-22T06:35:58;10.87;;;9.87;;
2728;SDS011;1372;47.956;7.830;2023-06-22T06:38:30;11.80;;;10.40;;
2728;SDS011;1372;47.956;7.830;2023-06-22T06:40:59;11.30;;;10.20;;
2728;SDS011;1372;47.956;7.830;2023-06-22T06:43:28;12.60;;;9.90;;
2728;SDS011;1372;47.956;7.830;2023-06-22T06:45:56;12.37;;;10.10;;
2728;SDS011;1372;47.956;7.830;2023-06-22T06:48:25;11.10;;;9.67;;
2728;SDS011;1372;47.956;7.830;2023-06-22T06:50:54;11.93;;;9.43;;
2728;SDS011;1372;47.956;7.830;2023-06-22T06:53:26;11.37;;;9.80;;
2728;SDS011;1372;47.956;7.830;2023-06-22T06:55:56;10.77;;;8.87;;
2728;SDS011;1372;47.956;7.830;2023-06-22T06:58:25;12.33;;;9.37;;
2728;SDS011;1372;47.956;7.830;2023-06-22T07:00:57;9.90;;;8.83;;
2728;SDS011;1372;47.956;7.830;2023-06-22T07:03:26;12.53;;;9.90;;
2728;SDS011;1372;47.956;7.830;2023-06-22T07:05:58;11.90;;;8.97;;
2728;SDS011;1372;47.956;7.830;2023-06-22T07:08:26;9.77;;;8.63;;
2728;SDS011;1372;47.956;7.830;2023-06-22T07:10:58;10.30;;;8.63;;
2728;SDS011;1372;47.956;7.830;2023-06-22T07:13:30;9.63;;;8.60;;
2728;SDS011;1372;47.956;7.830;2023-06-22T07:16:00;12.57;;;9.77;;
2728;SDS011;1372;47.956;7.830;2023-06-22T07:18:29;12.07;;;9.70;;
2728;SDS011;1372;47.956;7.830;2023-06-22T07:20:58;9.97;;;8.97;;
2728;SDS011;1372;47.956;7.830;2023-06-22T07:23:27;9.80;;;8.80;;
2728;SDS011;1372;47.956;7.830;2023-06-22T07:25:57;10.27;;;9.30;;
2728;SDS011;1372;47.956;7.830;2023-06-22T07:28:28;8.97;;;8.17;;
2728;SDS011;1372;47.956;7.830;2023-06-22T07:31:00;8.03;;;6.80;;
2728;SDS011;1372;47.956;7.830;2023-06-22T07:33:30;9.27;;;8.47;;
2728;SDS011;1372;47.956;7.830;2023-06-22T07:35:59;8.20;;;7.03;;
2728;SDS011;1372;47.956;7.830;2023-06-22T07:38:28;8.80;;;7.97;;
2728;SDS011;1372;47.956;7.830;2023-06-22T07:41:00;7.17;;;6.50;;
2728;SDS011;1372;47.956;7.830;2023-06-22T07:43:32;9.97;;;7.47;;
2728;SDS011;1372;47.956;7.830;2023-06-22T07:46:01;9.87;;;7.73;;
2728;SDS011;1372;47.956;7.830;2023-06-22T07:48:30;9.50;;;8.20;;
2728;SDS011;1372;47.956;7.830;2023-06-22T07:50:59;9.00;;;8.23;;
2728;SDS011;1372;47.956;7.830;2023-06-22T07:53:30;8.83;;;8.00;;
2728;SDS011;1372;47.956;7.830;2023-06-22T07:56:00;8.97;;;8.10;;
2728;SDS011;1372;47.956;7.830;2023-06-22T07:58:33;9.30;;;8.13;;
2728;SDS011;1372;47.956;7.830;2023-06-22T08:01:05;9.13;;;8.23;;
2728;SDS011;1372;47.956;7.830;2023-06-22T08:03:36;12.70;;;10.33;;
2728;SDS011;1372;47.956;7.830;2023-06-22T08:06:06;10.13;;;8.70;;
2728;SDS011;1372;47.956;7.830;2023-06-22T08:08:36;14.20;;;8.97;;
2728;SDS011;1372;47.956;7.830;2023-06-22T08:11:06;11.63;;;8.87;;
2728;SDS011;1372;47.956;7.830;2023-06-22T08:13:35;11.40;;;9.10;;
2728;SDS011;1372;47.956;7.830;2023-06-22T08:16:04;9.37;;;8.57;;
2728;SDS011;1372;47.956;7.830;2023-06-22T08:18:34;11.00;;;8.30;;
2728;SDS011;1372;47.956;7.830;2023-06-22T08:21:02;8.47;;;7.07;;
2728;SDS011;1372;47.956;7.830;2023-06-22T08:23:32;10.27;;;7.70;;
2728;SDS011;1372;47.956;7.830;2023-06-22T08:26:04;8.40;;;7.60;;
2728;SDS011;1372;47.956;7.830;2023-06-22T08:28:34;10.43;;;8.13;;
2728;SDS011;1372;47.956;7.830;2023-06-22T08:31:05;10.30;;;7.83;;
2728;SDS011;1372;47.956;7.830;2023-06-22T08:33:35;12.23;;;7.87;;
2728;SDS011;1372;47.956;7.830;2023-06-22T08:36:14;7.23;;;6.47;;
2728;SDS011;1372;47.956;7.830;2023-06-22T08:38:43;10.17;;;8.10;;
2728;SDS011;1372;47.956;7.830;2023-06-22T08:41:16;9.00;;;7.50;;
2728;SDS011;1372;47.956;7.830;2023-06-22T08:43:45;8.57;;;7.77;;
2728;SDS011;1372;47.956;7.830;2023-06-22T08:46:14;8.30;;;7.60;;
2728;SDS011;1372;47.956;7.830;2023-06-22T08:48:46;8.37;;;7.03;;
2728;SDS011;1372;47.956;7.830;2023-06-22T08:51:15;9.20;;;7.00;;
2728;SDS011;1372;47.956;7.830;2023-06-22T08:53:47;7.80;;;7.10;;
2728;SDS011;1372;47.956;7.830;2023-06-22T08:56:17;9.80;;;8.07;;
2728;SDS011;1372;47.956;7.830;2023-06-22T08:58:46;10.13;;;7.80;;
2728;SDS011;1372;47.956;7.830;2023-06-22T09:01:17;9.57;;;7.60;;
2728;SDS011;1372;47.956;7.830;2023-06-22T09:03:45;7.50;;;6.70;;
2728;SDS011;1372;47.956;7.830;2023-06-22T09:06:24;12.27;;;7.70;;
2728;SDS011;1372;47.956;7.830;2023-06-22T09:08:53;8.27;;;7.47;;
2728;SDS011;1372;47.956;7.830;2023-06-22T09:11:23;9.60;;;7.70;;
2728;SDS011;1372;47.956;7.830;2023-06-22T09:13:52;9.30;;;7.77;;
2728;SDS011;1372;47.956;7.830;2023-06-22T09:16:21;9.60;;;8.00;;
2728;SDS011;1372;47.956;7.830;2023-06-22T09:18:53;9.57;;;8.60;;
2728;SDS011;1372;47.956;7.830;2023-06-22T09:21:23;8.87;;;7.83;;
2728;SDS011;1372;47.956;7.830;2023-06-22T09:23:52;11.00;;;8.10;;
2728;SDS011;1372;47.956;7.830;2023-06-22T09:26:21;8.13;;;7.33;;
2728;SDS011;1372;47.956;7.830;2023-06-22T09:28:51;7.60;;;6.63;;
2728;SDS011;1372;47.956;7.830;2023-06-22T09:31:20;11.83;;;8.17;;
2728;SDS011;1372;47.956;7.830;2023-06-22T09:33:52;10.37;;;7.47;;
2728;SDS011;1372;47.956;7.830;2023-06-22T09:36:25;8.47;;;7.47;;
2728;SDS011;1372;47.956;7.830;2023-06-22T09:38:53;8.23;;;6.70;;
2728;SDS011;1372;47.956;7.830;2023-06-22T09:41:26;7.97;;;6.73;;
2728;SDS011;1372;47.956;7.830;2023-06-22T09:43:56;8.00;;;7.20;;
2728;SDS011;1372;47.956;7.830;2023-06-22T09:46:25;8.37;;;7.40;;
2728;SDS011;1372;47.956;7.830;2023-06-22T09:48:54;8.03;;;6.87;;
2728;SDS011;1372;47.956;7.830;2023-06-22T09:51:24;7.80;;;7.00;;
2728;SDS011;1372;47.956;7.830;2023-06-22T09:53:52;12.00;;;7.70;;
2728;SDS011;1372;47.956;7.830;2023-06-22T09:56:21;8.17;;;7.13;;
2728;SDS011;1372;47.956;7.830;2023-06-22T09:58:53;8.90;;;7.00;;
2728;SDS011;1372;47.956;7.830;2023-06-22T10:01:31;8.23;;;6.97;;
2728;SDS011;1372;47.956;7.830;2023-06-22T10:04:01;7.87;;;6.83;;
2728;SDS011;1372;47.956;7.830;2023-06-22T10:06:30;7.47;;;6.63;;
2728;SDS011;1372;47.956;7.830;2023-06-22T10:09:02;10.70;;;7.40;;
2728;SDS011;1372;47.956;7.830;2023-06-22T10:11:31;11.53;;;7.87;;
2728;SDS011;1372;47.956;7.830;2023-06-22T10:14:03;8.67;;;7.80;;
2728;SDS011;1372;47.956;7.830;2023-06-22T10:16:32;7.80;;;7.00;;
2728;SDS011;1372;47.956;7.830;2023-06-22T10:19:02;11.33;;;7.50;;
2728;SDS011;1372;47.956;7.830;2023-06-22T10:21:31;8.13;;;6.50;;
2728;SDS011;1372;47.956;7.830;2023-06-22T10:24:03;8.70;;;7.80;;
2728;SDS011;1372;47.956;7.830;2023-06-22T10:26:36;9.13;;;6.80;;
2728;SDS011;1372;47.956;7.830;2023-06-22T10:29:07;8.53;;;7.03;;
2728;SDS011;1372;47.956;7.830;2023-06-22T10:31:38;12.70;;;7.80;;
2728;SDS011;1372;47.956;7.830;2023-06-22T10:34:07;13.73;;;8.23;;
2728;SDS011;1372;47.956;7.830;2023-06-22T10:36:36;7.70;;;7.00;;
2728;SDS011;1372;47.956;7.830;2023-06-22T10:39:05;8.20;;;7.50;;
2728;SDS011;1372;47.956;7.830;2023-06-22T10:41:34;9.10;;;7.83;;
2728;SDS011;1372;47.956;7.830;2023-06-22T10:44:03;11.20;;;7.57;;
2728;SDS011;1372;47.956;7.830;2023-06-22T10:46:36;9.23;;;7.70;;
2728;SDS011;1372;47.956;7.830;2023-06-22T10:49:05;10.50;;;7.27;;
2728;SDS011;1372;47.956;7.830;2023-06-22T10:51:33;9.20;;;8.40;;
2728;SDS011;1372;47.956;7.830;2023-06-22T10:54:02;12.67;;;9.17;;
2728;SDS011;1372;47.956;7.830;2023-06-22T10:56:32;10.17;;;9.00;;
2728;SDS011;1372;47.956;7.830;2023-06-22T10:59:03;10.80;;;8.70;;
2728;SDS011;1372;47.956;7.830;2023-06-22T11:01:33;10.90;;;9.23;;
2728;SDS011;1372;47.956;7.830;2023-06-22T11:04:04;9.50;;;7.77;;
2728;SDS011;1372;47.956;7.830;2023-06-22T11:06:33;9.80;;;8.73;;
2728;SDS011;1372;47.956;7.830;2023-06-22T11:09:02;11.33;;;8.20;;
2728;SDS011;1372;47.956;7.830;2023-06-22T11:11:49;10.87;;;9.83;;
2728;SDS011;1372;47.956;7.830;2023-06-22T11:14:22;9.63;;;8.50;;
2728;SDS011;1372;47.956;7.830;2023-06-22T11:16:51;8.63;;;7.80;;
2728;SDS011;1372;47.956;7.830;2023-06-22T11:19:21;10.57;;;9.07;;
2728;SDS011;1372;47.956;7.830;2023-06-22T11:21:51;11.83;;;8.67;;
2728;SDS011;1372;47.956;7.830;2023-06-22T11:24:20;13.70;;;8.73;;
2728;SDS011;1372;47.956;7.830;2023-06-22T11:26:49;9.40;;;8.50;;
2728;SDS011;1372;47.956;7.830;2023-06-22T11:29:18;12.73;;;9.67;;
2728;SDS011;1372;47.956;7.830;2023-06-22T11:32:02;9.43;;;8.43;;
2728;SDS011;1372;47.956;7.830;2023-06-22T11:34:33;9.53;;;8.40;;
2728;SDS011;1372;47.956;7.830;2023-06-22T11:37:02;10.47;;;9.37;;
2728;SDS011;1372;47.956;7.830;2023-06-22T11:39:31;9.80;;;8.80;;
2728;SDS011;1372;47.956;7.830;2023-06-22T11:42:09;9.90;;;8.50;;
2728;SDS011;1372;47.956;7.830;2023-06-22T11:44:40;7.80;;;7.10;;
2728;SDS011;1372;47.956;7.830;2023-06-22T11:47:09;10.17;;;8.53;;
2728;SDS011;1372;47.956;7.830;2023-06-22T11:49:40;9.13;;;8.23;;
2728;SDS011;1372;47.956;7.830;2023-06-22T11:52:09;9.57;;;8.63;;
2728;SDS011;1372;47.956;7.830;2023-06-22T11:54:38;10.57;;;8.60;;
2728;SDS011;1372;47.956;7.830;2023-06-22T11:57:09;11.80;;;8.53;;
2728;SDS011;1372;47.956;7.830;2023-06-22T11:59:39;9.73;;;8.50;;
2728;SDS011;1372;47.956;7.830;2023-06-22T12:02:07;8.60;;;7.80;;
2728;SDS011;1372;47.956;7.830;2023-06-22T12:04:36;9.80;;;8.73;;
2728;SDS011;1372;47.956;7.830;2023-06-22T12:07:06;9.10;;;8.23;;
2728;SDS011;1372;47.956;7.830;2023-06-22T12:09:38;14.40;;;9.40;;
2728;SDS011;1372;47.956;7.830;2023-06-22T12:12:07;9.03;;;8.20;;
2728;SDS011;1372;47.956;7.830;2023-06-22T12:14:36;11.63;;;9.30;;
2728;SDS011;1372;47.956;7.830;2023-06-22T12:17:06;10.17;;;8.53;;
2728;SDS011;1372;47.956;7.830;2023-06-22T12:19:35;9.80;;;7.83;;
2728;SDS011;1372;47.956;7.830;2023-06-22T12:22:04;10.20;;;8.50;;
2728;SDS011;1372;47.956;7.830;2023-06-22T12:24:34;8.20;;;7.30;;
2728;SDS011;1372;47.956;7.830;2023-06-22T12:27:03;11.10;;;9.30;;
2728;SDS011;1372;47.956;7.830;2023-06-22T12:29:32;10.33;;;9.03;;
2728;SDS011;1372;47.956;7.830;2023-06-22T12:32:02;10.17;;;8.63;;
2728;SDS011;1372;47.956;7.830;2023-06-22T12:34:34;11.00;;;9.90;;
2728;SDS011;1372;47.956;7.830;2023-06-22T12:37:03;10.17;;;8.53;;
2728;SDS011;1372;47.956;7.830;2023-06-22T12:39:33;11.00;;;8.50;;
2728;SDS011;1372;47.956;7.830;2023-06-22T12:42:06;8.10;;;7.40;;
2728;SDS011;1372;47.956;7.830;2023-06-22T12:44:37;10.63;;;8.10;;
2728;SDS011;1372;47.956;7.830;2023-06-22T12:47:07;10.40;;;7.90;;
2728;SDS011;1372;47.956;7.830;2023-06-22T12:49:36;8.37;;;7.50;;
2728;SDS011;1372;47.956;7.830;2023-06-22T12:52:08;8.67;;;7.40;;
2728;SDS011;1372;47.956;7.830;2023-06-22T12:54:40;9.00;;;7.67;;
2728;SDS011;1372;47.956;7.830;2023-06-22T12:57:22;9.60;;;7.50;;
2728;SDS011;1372;47.956;7.830;2023-06-22T12:59:54;8.17;;;6.30;;
2728;SDS011;1372;47.956;7.830;2023-06-22T13:02:25;9.20;;;6.53;;
2728;SDS011;1372;47.956;7.830;2023-06-22T13:04:54;9.30;;;6.90;;
2728;SDS011;1372;47.956;7.830;2023-06-22T13:07:23;7.00;;;6.30;;
2728;SDS011;1372;47.956;7.830;2023-06-22T13:09:54;11.73;;;8.00;;
2728;SDS011;1372;47.956;7.830;2023-06-22T13:12:23;7.87;;;6.70;;
2728;SDS011;1372;47.956;7.830;2023-06-22T13:14:52;6.97;;;6.27;;
2728;SDS011;1372;47.956;7.830;2023-06-22T13:17:21;6.90;;;5.90;;
2728;SDS011;1372;47.956;7.830;2023-06-22T13:19:50;8.20;;;7.30;;
2728;SDS011;1372;47.956;7.830;2023-06-22T13:22:28;9.70;;;6.30;;
2728;SDS011;1372;47.956;7.830;2023-06-22T13:25:00;7.43;;;6.57;;
2728;SDS011;1372;47.956;7.830;2023-06-22T13:27:29;7.40;;;6.70;;
2728;SDS011;1372;47.956;7.830;2023-06-22T13:29:58;10.50;;;7.47;;
2728;SDS011;1372;47.956;7.830;2023-06-22T13:32:27;11.70;;;5.80;;
2728;SDS011;1372;47.956;7.830;2023-06-22T13:34:56;11.57;;;7.00;;
2728;SDS011;1372;47.956;7.830;2023-06-22T13:37:25;9.03;;;6.93;;
2728;SDS011;1372;47.956;7.830;2023-06-22T13:39:54;7.13;;;6.33;;
2728;SDS011;1372;47.956;7.830;2023-06-22T13:42:27;9.27;;;6.73;;
2728;SDS011;1372;47.956;7.830;2023-06-22T13:44:56;12.63;;;6.57;;
2728;SDS011;1372;47.956;7.830;2023-06-22T13:47:25;7.70;;;6.87;;
2728;SDS011;1372;47.956;7.830;2023-06-22T13:49:56;9.77;;;6.57;;
2728;SDS011;1372;47.956;7.830;2023-06-22T13:52:25;10.07;;;6.43;;
2728;SDS011;1372;47.956;7.830;2023-06-22T13:54:54;7.23;;;6.43;;
2728;SDS011;1372;47.956;7.830;2023-06-22T13:57:23;9.30;;;6.43;;
2728;SDS011;1372;47.956;7.830;2023-06-22T13:59:53;8.23;;;6.80;;
2728;SDS011;1372;47.956;7.830;2023-06-22T14:02:22;12.57;;;5.90;;
2728;SDS011;1372;47.956;7.830;2023-06-22T14:04:51;7.93;;;6.30;;
2728;SDS011;1372;47.956;7.830;2023-06-22T14:07:22;8.27;;;5.70;;
2728;SDS011;1372;47.956;7.830;2023-06-22T14:09:51;7.10;;;6.40;;
2728;SDS011;1372;47.956;7.830;2023-06-22T14:12:20;8.07;;;7.27;;
2728;SDS011;1372;47.956;7.830;2023-06-22T14:14:49;8.10;;;6.03;;
2728;SDS011;1372;47.956;7.830;2023-06-22T14:17:20;8.60;;;6.07;;
2728;SDS011;1372;47.956;7.830;2023-06-22T14:19:52;7.30;;;6.37;;
2728;SDS011;1372;47.956;7.830;2023-06-22T14:22:21;7.77;;;6.40;;
2728;SDS011;1372;47.956;7.830;2023-06-22T14:24:51;8.00;;;6.60;;
2728;SDS011;1372;47.956;7.830;2023-06-22T14:27:20;9.70;;;6.40;;
2728;SDS011;1372;47.956;7.830;2023-06-22T14:29:49;10.80;;;7.60;;
2728;SDS011;1372;47.956;7.830;2023-06-22T14:32:19;8.50;;;6.30;;
2728;SDS011;1372;47.956;7.830;2023-06-22T14:34:48;8.17;;;6.67;;
2728;SDS011;1372;47.956;7.830;2023-06-22T14:37:19;6.90;;;6.20;;
2728;SDS011;1372;47.956;7.830;2023-06-22T14:39:50;7.83;;;7.10;;
2728;SDS011;1372;47.956;7.830;2023-06-22T14:42:19;7.43;;;6.50;;
2728;SDS011;1372;47.956;7.830;2023-06-22T14:44:48;7.93;;;7.13;;
2728;SDS011;1372;47.956;7.830;2023-06-22T14:47:17;7.40;;;6.40;;
2728;SDS011;1372;47.956;7.830;2023-06-22T14:49:48;8.60;;;7.80;;
2728;SDS011;1372;47.956;7.830;2023-06-22T14:52:17;7.97;;;7.13;;
2728;SDS011;1372;47.956;7.830;2023-06-22T14:54:46;13.27;;;6.97;;
2728;SDS011;1372;47.956;7.830;2023-06-22T14:57:14;9.83;;;6.47;;
2728;SDS011;1372;47.956;7.830;2023-06-22T14:59:46;9.53;;;7.03;;
2728;SDS011;1372;47.956;7.830;2023-06-22T15:02:15;13.63;;;5.73;;
2728;SDS011;1372;47.956;7.830;2023-06-22T15:04:46;6.70;;;6.00;;
2728;SDS011;1372;47.956;7.830;2023-06-22T15:07:17;10.30;;;6.50;;
2728;SDS011;1372;47.956;7.830;2023-06-22T15:09:47;6.90;;;5.73;;
2728;SDS011;1372;47.956;7.830;2023-06-22T15:12:15;6.13;;;5.37;;
2728;SDS011;1372;47.956;7.830;2023-06-22T15:14:47;8.93;;;5.77;;
2728;SDS011;1372;47.956;7.830;2023-06-22T15:17:16;7.57;;;5.30;;
2728;SDS011;1372;47.956;7.830;2023-06-22T15:19:46;6.97;;;5.70;;
2728;SDS011;1372;47.956;7.830;2023-06-22T15:22:15;5.37;;;4.87;;
2728;SDS011;1372;47.956;7.830;2023-06-22T15:24:46;8.30;;;4.70;;
2728;SDS011;1372;47.956;7.830;2023-06-22T15:27:15;6.13;;;5.30;;
2728;SDS011;1372;47.956;7.830;2023-06-22T15:29:44;5.57;;;4.80;;
2728;SDS011;1372;47.956;7.830;2023-06-22T15:32:13;6.80;;;4.70;;